createdAt,value
2023-03-15T00:00:34.315Z,2.43
2023-03-15T00:03:00.592Z,2.39
2023-03-15T00:05:27.024Z,2.34
2023-03-15T00:07:53.319Z,2.59
2023-03-15T00:10:19.607Z,2.46
2023-03-15T00:12:45.987Z,2.45
2023-03-15T00:15:12.351Z,2.36
2023-03-15T00:17:38.722Z,2.46
2023-03-15T00:20:05.064Z,2.40
2023-03-15T00:22:31.440Z,2.48
2023-03-15T00:24:57.770Z,2.46
2023-03-15T00:27:24.146Z,2.47
2023-03-15T00:29:50.459Z,2.45
2023-03-15T00:32:16.863Z,2.42
2023-03-15T00:34:43.192Z,2.45
2023-03-15T00:37:09.554Z,2.41
2023-03-15T00:39:35.949Z,2.34
2023-03-15T00:42:02.317Z,2.60
2023-03-15T00:44:28.653Z,2.28
2023-03-15T00:46:55.046Z,2.41
2023-03-15T00:49:21.371Z,2.37
2023-03-15T00:51:47.685Z,2.30
2023-03-15T00:54:14.009Z,2.41
2023-03-15T00:56:40.354Z,2.21
2023-03-15T00:59:06.680Z,2.44
2023-03-15T01:01:33.169Z,2.32
2023-03-15T01:03:59.529Z,2.24
2023-03-15T01:06:25.859Z,2.13
2023-03-15T01:08:52.278Z,2.26
2023-03-15T01:11:18.601Z,2.18
2023-03-15T01:13:44.986Z,2.22
2023-03-15T01:16:11.529Z,2.11
2023-03-15T01:18:37.936Z,2.21
2023-03-15T01:21:04.271Z,2.18
2023-03-15T01:23:30.682Z,2.15
2023-03-15T01:25:57.055Z,2.10
2023-03-15T01:28:23.452Z,2.31
2023-03-15T01:30:49.890Z,2.36
2023-03-15T01:33:16.288Z,2.15
2023-03-15T01:35:42.668Z,2.14
2023-03-15T01:38:09.021Z,2.10
2023-03-15T01:40:35.346Z,2.42
2023-03-15T01:43:01.734Z,2.18
2023-03-15T01:45:28.090Z,2.31
2023-03-15T01:47:54.401Z,2.24
2023-03-15T01:50:20.716Z,2.13
2023-03-15T01:52:47.011Z,2.32
2023-03-15T01:55:13.362Z,2.08
2023-03-15T01:57:39.754Z,2.11
2023-03-15T02:00:06.069Z,2.09
2023-03-15T02:02:32.403Z,2.26
2023-03-15T02:04:58.759Z,2.16
2023-03-15T02:07:25.102Z,2.26
2023-03-15T02:09:51.433Z,2.25
2023-03-15T02:12:17.774Z,2.22
2023-03-15T02:14:44.149Z,2.12
2023-03-15T02:17:10.524Z,2.13
2023-03-15T02:19:36.856Z,1.95
2023-03-15T02:22:03.248Z,2.09
2023-03-15T02:24:29.585Z,2.13
2023-03-15T02:26:56.005Z,2.08
2023-03-15T02:29:22.511Z,1.96
2023-03-15T02:31:48.842Z,2.01
2023-03-15T02:34:15.324Z,1.90
2023-03-15T02:36:41.678Z,2.02
2023-03-15T02:39:07.985Z,1.98
2023-03-15T02:41:34.325Z,1.98
2023-03-15T02:44:00.638Z,1.89
2023-03-15T02:46:27.208Z,1.92
2023-03-15T02:48:53.604Z,1.78
2023-03-15T02:51:19.968Z,1.86
2023-03-15T02:53:46.340Z,1.97
2023-03-15T02:56:12.717Z,1.97
2023-03-15T02:58:39.082Z,1.86
2023-03-15T03:01:05.523Z,2.01
2023-03-15T03:03:31.908Z,1.97
2023-03-15T03:05:58.263Z,1.99
2023-03-15T03:08:24.621Z,2.03
2023-03-15T03:10:50.961Z,1.88
2023-03-15T03:13:17.279Z,2.00
2023-03-15T03:15:44.514Z,2.02
2023-03-15T03:18:11.682Z,2.06
2023-03-15T03:20:38.050Z,1.84
2023-03-15T03:23:04.405Z,1.94
2023-03-15T03:25:30.704Z,1.88
2023-03-15T03:27:57.114Z,1.71
2023-03-15T03:30:23.531Z,1.67
2023-03-15T03:32:49.933Z,1.70
2023-03-15T03:35:16.366Z,1.68
2023-03-15T03:37:42.704Z,1.71
2023-03-15T03:40:09.221Z,1.77
2023-03-15T03:42:35.607Z,1.90
2023-03-15T03:45:01.980Z,1.94
2023-03-15T03:47:28.320Z,1.75
2023-03-15T03:49:54.628Z,1.58
2023-03-15T03:52:20.952Z,1.73
2023-03-15T03:54:47.266Z,1.74
2023-03-15T03:57:13.637Z,1.79
2023-03-15T03:59:39.976Z,1.70
2023-03-15T04:02:06.274Z,1.73
2023-03-15T04:04:32.743Z,1.63
2023-03-15T04:06:59.073Z,1.70
2023-03-15T04:09:25.430Z,1.72
2023-03-15T04:11:51.769Z,1.83
2023-03-15T04:14:18.118Z,1.67
2023-03-15T04:16:44.487Z,1.73
2023-03-15T04:19:10.850Z,1.69
2023-03-15T04:21:37.338Z,1.75
2023-03-15T04:24:03.734Z,1.69
2023-03-15T04:26:30.103Z,1.60
2023-03-15T04:28:56.536Z,1.64
2023-03-15T04:31:22.918Z,1.62
2023-03-15T04:33:49.262Z,1.62
2023-03-15T04:36:15.626Z,1.77
2023-03-15T04:38:41.993Z,1.61
2023-03-15T04:41:08.317Z,1.64
2023-03-15T04:43:34.800Z,1.59
2023-03-15T04:46:01.161Z,1.67
2023-03-15T04:48:27.485Z,1.56
2023-03-15T04:50:53.836Z,1.59
2023-03-15T04:53:20.210Z,1.63
2023-03-15T04:55:46.568Z,1.51
2023-03-15T04:58:12.884Z,1.45
2023-03-15T05:00:39.232Z,1.54
2023-03-15T05:03:05.624Z,1.38
2023-03-15T05:05:31.956Z,1.59
2023-03-15T05:07:58.317Z,1.63
2023-03-15T05:10:24.634Z,1.47
2023-03-15T05:12:50.956Z,1.49
2023-03-15T05:15:17.376Z,1.46
2023-03-15T05:17:43.800Z,1.49
2023-03-15T05:20:10.130Z,1.51
2023-03-15T05:22:36.449Z,1.51
2023-03-15T05:25:02.818Z,1.31
2023-03-15T05:27:29.157Z,1.22
2023-03-15T05:29:55.497Z,1.38
2023-03-15T05:32:21.834Z,1.34
2023-03-15T05:34:48.219Z,1.33
2023-03-15T05:37:14.587Z,1.46
2023-03-15T05:39:40.922Z,1.46
2023-03-15T05:42:07.277Z,1.44
2023-03-15T05:44:33.634Z,1.33
2023-03-15T05:46:59.942Z,1.48
2023-03-15T05:49:26.288Z,1.34
2023-03-15T05:51:52.592Z,1.42
2023-03-15T05:54:18.966Z,1.32
2023-03-15T05:56:45.286Z,1.37
2023-03-15T05:59:11.629Z,1.38
2023-03-15T06:01:37.941Z,1.48
2023-03-15T06:04:04.310Z,1.31
2023-03-15T06:06:32.640Z,1.40
2023-03-15T06:09:00.019Z,1.28
2023-03-15T06:11:26.406Z,1.52
2023-03-15T06:13:52.705Z,1.47
2023-03-15T06:16:19.131Z,1.47
2023-03-15T06:18:45.491Z,1.33
2023-03-15T06:21:11.860Z,1.28
2023-03-15T06:23:38.230Z,1.42
2023-03-15T06:26:04.634Z,1.43
2023-03-15T06:28:30.983Z,1.37
2023-03-15T06:30:57.525Z,1.39
2023-03-15T06:33:23.904Z,1.42
2023-03-15T06:35:50.285Z,1.36
2023-03-15T06:38:16.676Z,1.47
2023-03-15T06:40:43.043Z,1.55
2023-03-15T06:43:09.379Z,1.35
2023-03-15T06:45:35.754Z,1.58
2023-03-15T06:48:02.100Z,1.55
2023-03-15T06:50:34.392Z,1.66
2023-03-15T06:53:10.785Z,1.65
2023-03-15T06:55:37.096Z,1.57
2023-03-15T06:58:03.427Z,1.76
2023-03-15T07:00:29.786Z,1.57
2023-03-15T07:02:56.142Z,1.70
2023-03-15T07:05:22.483Z,1.77
2023-03-15T07:07:48.815Z,2.00
2023-03-15T07:10:15.118Z,2.10
2023-03-15T07:12:41.453Z,2.12
2023-03-15T07:15:07.772Z,2.11
2023-03-15T07:17:34.094Z,2.05
2023-03-15T07:20:00.447Z,2.04
2023-03-15T07:22:26.768Z,2.10
2023-03-15T07:24:53.090Z,2.14
2023-03-15T07:27:19.689Z,2.13
2023-03-15T07:29:46.138Z,2.17
2023-03-15T07:32:12.541Z,4.86
2023-03-15T07:34:38.892Z,2.69
2023-03-15T07:37:05.292Z,2.51
2023-03-15T07:39:31.669Z,5.34
2023-03-15T07:41:57.985Z,21.83
2023-03-15T07:44:24.291Z,14.00
2023-03-15T07:46:50.786Z,20.23
2023-03-15T07:49:17.228Z,15.34
2023-03-15T07:51:43.647Z,12.05
2023-03-15T07:54:10.049Z,10.71
2023-03-15T07:56:36.370Z,9.82
2023-03-15T07:59:02.756Z,9.24
2023-03-15T08:01:29.111Z,9.00
2023-03-15T08:03:55.446Z,8.76
2023-03-15T08:06:21.795Z,8.05
2023-03-15T08:08:48.127Z,7.34
2023-03-15T08:11:14.427Z,6.67
2023-03-15T08:13:40.747Z,5.90
2023-03-15T08:16:07.219Z,6.27
2023-03-15T08:18:33.592Z,5.96
2023-03-15T08:20:59.962Z,5.46
2023-03-15T08:23:26.343Z,5.24
2023-03-15T08:25:52.746Z,4.89
2023-03-15T08:28:19.133Z,4.18
2023-03-15T08:30:45.497Z,4.04
2023-03-15T08:33:11.905Z,3.74
2023-03-15T08:35:38.330Z,3.89
2023-03-15T08:38:04.668Z,3.99
2023-03-15T08:40:31.072Z,4.09
2023-03-15T08:42:57.535Z,3.95
2023-03-15T08:45:23.976Z,3.48
2023-03-15T08:47:50.376Z,3.58
2023-03-15T08:50:16.805Z,3.71
2023-03-15T08:52:43.187Z,3.93
2023-03-15T08:55:09.587Z,4.26
2023-03-15T08:57:35.927Z,4.02
2023-03-15T09:00:02.356Z,3.60
2023-03-15T09:02:28.818Z,3.65
2023-03-15T09:04:55.192Z,3.59
2023-03-15T09:07:21.538Z,3.40
2023-03-15T09:09:48.027Z,3.19
2023-03-15T09:12:14.363Z,3.37
2023-03-15T09:14:40.758Z,3.36
2023-03-15T09:17:07.198Z,3.41
2023-03-15T09:19:33.610Z,3.39
2023-03-15T09:22:10.988Z,3.29
2023-03-15T09:24:46.417Z,3.11
2023-03-15T09:27:12.808Z,2.97
2023-03-15T09:29:39.247Z,2.76
2023-03-15T09:32:05.667Z,2.53
2023-03-15T09:34:39.925Z,2.75
2023-03-15T09:37:08.039Z,2.78
2023-03-15T09:39:34.433Z,2.69
2023-03-15T09:42:00.796Z,2.50
2023-03-15T09:44:27.126Z,2.60
2023-03-15T09:46:53.626Z,2.33
2023-03-15T09:49:20.050Z,2.46
2023-03-15T09:51:46.386Z,2.39
2023-03-15T09:54:12.777Z,2.25
2023-03-15T09:56:39.099Z,2.08
2023-03-15T09:59:05.438Z,2.09
2023-03-15T10:01:31.779Z,2.20
2023-03-15T10:03:58.087Z,2.05
2023-03-15T10:06:24.535Z,1.80
2023-03-15T10:08:50.939Z,1.93
2023-03-15T10:11:17.254Z,1.95
2023-03-15T10:13:43.708Z,1.83
2023-03-15T10:16:10.108Z,2.00
2023-03-15T10:18:36.514Z,1.96
2023-03-15T10:21:02.913Z,1.88
2023-03-15T10:23:29.297Z,1.98
2023-03-15T10:25:55.613Z,1.77
2023-03-15T10:28:21.988Z,1.57
2023-03-15T10:30:48.410Z,1.78
2023-03-15T10:33:14.764Z,1.73
2023-03-15T10:35:41.140Z,1.78
2023-03-15T10:38:07.455Z,1.71
2023-03-15T10:40:33.795Z,1.90
2023-03-15T10:43:00.132Z,1.59
2023-03-15T10:45:26.481Z,1.93
2023-03-15T10:48:01.179Z,1.57
2023-03-15T10:50:27.633Z,1.64
2023-03-15T10:52:54.008Z,1.65
2023-03-15T10:55:20.342Z,1.64
2023-03-15T10:57:46.657Z,1.65
2023-03-15T11:00:13.000Z,1.80
2023-03-15T11:02:39.338Z,1.71
2023-03-15T11:05:05.740Z,1.77
2023-03-15T11:07:32.114Z,1.73
2023-03-15T11:09:58.494Z,1.80
2023-03-15T11:12:24.884Z,1.95
2023-03-15T11:14:51.285Z,1.55
2023-03-15T11:17:17.673Z,1.70
2023-03-15T11:19:44.033Z,1.60
2023-03-15T11:22:10.404Z,1.79
2023-03-15T11:24:36.798Z,1.69
2023-03-15T11:27:03.162Z,1.80
2023-03-15T11:29:29.527Z,1.51
2023-03-15T11:31:55.952Z,1.70
2023-03-15T11:34:22.332Z,1.60
2023-03-15T11:36:55.605Z,1.58
2023-03-15T11:39:28.423Z,1.71
2023-03-15T11:41:54.762Z,1.60
2023-03-15T11:44:21.055Z,1.76
2023-03-15T11:46:47.378Z,1.75
2023-03-15T11:49:13.750Z,1.58
2023-03-15T11:51:40.076Z,1.61
2023-03-15T11:54:06.444Z,1.87
2023-03-15T11:56:32.801Z,1.72
2023-03-15T11:59:01.008Z,1.78
2023-03-15T12:01:27.438Z,1.69
2023-03-15T12:03:53.778Z,1.63
2023-03-15T12:06:20.080Z,1.69
2023-03-15T12:08:46.389Z,1.96
2023-03-15T12:11:12.753Z,1.85
2023-03-15T12:13:39.119Z,2.13
2023-03-15T12:16:05.488Z,2.05
2023-03-15T12:18:31.898Z,2.13
2023-03-15T12:20:58.277Z,2.41
2023-03-15T12:23:24.646Z,2.40
2023-03-15T12:25:55.015Z,2.55
2023-03-15T12:28:21.698Z,2.51
2023-03-15T12:30:48.059Z,2.56
2023-03-15T12:33:14.441Z,2.72
2023-03-15T12:35:40.839Z,2.86
2023-03-15T12:38:07.204Z,2.83
2023-03-15T12:40:33.555Z,3.01
2023-03-15T12:42:59.986Z,2.98
2023-03-15T12:45:26.347Z,2.71
2023-03-15T12:47:52.702Z,2.89
2023-03-15T12:50:19.178Z,2.69
2023-03-15T12:52:45.510Z,2.89
2023-03-15T12:55:12.009Z,2.85
2023-03-15T12:57:38.352Z,2.69
2023-03-15T13:00:04.669Z,2.90
2023-03-15T13:02:42.082Z,3.15
2023-03-15T13:05:09.412Z,2.80
2023-03-15T13:07:48.932Z,2.93
2023-03-15T13:10:17.240Z,2.67
2023-03-15T13:12:43.612Z,2.63
2023-03-15T13:15:09.933Z,2.58
2023-03-15T13:17:36.270Z,2.50
2023-03-15T13:20:02.612Z,2.59
2023-03-15T13:22:28.932Z,2.52
2023-03-15T13:24:55.303Z,2.44
2023-03-15T13:27:21.695Z,2.59
2023-03-15T13:29:48.037Z,2.29
2023-03-15T13:32:14.428Z,2.15
2023-03-15T13:34:40.813Z,2.24
2023-03-15T13:37:07.121Z,2.37
2023-03-15T13:39:33.504Z,2.21
2023-03-15T13:41:59.841Z,2.16
2023-03-15T13:44:26.234Z,2.16
2023-03-15T13:46:52.661Z,2.07
2023-03-15T13:49:19.035Z,2.09
2023-03-15T13:51:45.407Z,2.22
2023-03-15T13:54:11.781Z,2.05
2023-03-15T13:56:48.935Z,2.14
2023-03-15T13:59:16.130Z,1.98
2023-03-15T14:01:42.597Z,2.18
2023-03-15T14:04:09.063Z,2.12
2023-03-15T14:06:35.441Z,2.06
2023-03-15T14:09:01.810Z,2.10
2023-03-15T14:11:28.218Z,2.18
2023-03-15T14:13:54.627Z,1.92
2023-03-15T14:16:21.012Z,2.06
2023-03-15T14:18:47.418Z,1.92
2023-03-15T14:21:13.755Z,1.85
2023-03-15T14:23:40.289Z,1.86
2023-03-15T14:26:07.775Z,1.93
2023-03-15T14:28:34.332Z,1.93
2023-03-15T14:31:00.687Z,2.03
2023-03-15T14:33:27.026Z,2.06
2023-03-15T14:35:53.455Z,2.05
2023-03-15T14:38:19.864Z,1.99
2023-03-15T14:40:46.189Z,1.99
2023-03-15T14:43:12.556Z,1.74
2023-03-15T14:45:38.922Z,1.96
2023-03-15T14:48:05.259Z,1.85
2023-03-15T14:50:31.595Z,1.97
2023-03-15T14:52:57.951Z,2.01
2023-03-15T14:55:24.316Z,1.94
2023-03-15T14:57:50.676Z,2.09
2023-03-15T15:00:17.008Z,2.06
2023-03-15T15:02:43.346Z,1.90
2023-03-15T15:05:09.674Z,1.72
2023-03-15T15:07:36.035Z,1.85
2023-03-15T15:10:02.416Z,8.03
2023-03-15T15:12:28.805Z,19.20
2023-03-15T15:14:55.184Z,10.56
2023-03-15T15:17:21.589Z,9.87
2023-03-15T15:19:47.953Z,9.63
2023-03-15T15:22:14.289Z,9.75
2023-03-15T15:24:40.668Z,10.12
2023-03-15T15:27:06.967Z,9.08
2023-03-15T15:29:33.266Z,8.39
2023-03-15T15:31:59.640Z,8.25
2023-03-15T15:34:26.024Z,7.85
2023-03-15T15:36:52.379Z,7.38
2023-03-15T15:39:18.687Z,6.66
2023-03-15T15:41:45.116Z,6.54
2023-03-15T15:44:11.486Z,5.92
2023-03-15T15:46:37.804Z,6.09
2023-03-15T15:49:04.151Z,5.70
2023-03-15T15:51:30.527Z,5.59
2023-03-15T15:53:56.934Z,6.18
2023-03-15T15:56:23.310Z,5.61
2023-03-15T15:58:49.651Z,4.97
2023-03-15T16:01:15.958Z,5.12
2023-03-15T16:03:42.317Z,4.68
2023-03-15T16:06:08.648Z,4.26
2023-03-15T16:08:34.964Z,4.10
2023-03-15T16:11:01.288Z,3.95
2023-03-15T16:13:27.620Z,3.93
2023-03-15T16:15:54.031Z,3.85
2023-03-15T16:18:20.364Z,3.50
2023-03-15T16:20:46.708Z,3.55
2023-03-15T16:23:13.071Z,3.37
2023-03-15T16:25:39.404Z,3.29
2023-03-15T16:28:05.887Z,3.18
2023-03-15T16:30:32.442Z,3.04
2023-03-15T16:32:58.830Z,3.13
2023-03-15T16:35:25.255Z,2.98
2023-03-15T16:37:51.659Z,2.92
2023-03-15T16:40:17.999Z,2.96
2023-03-15T16:42:44.364Z,2.72
2023-03-15T16:45:10.746Z,2.79
2023-03-15T16:47:37.243Z,2.87
2023-03-15T16:50:03.676Z,2.67
2023-03-15T16:52:29.994Z,2.50
2023-03-15T16:54:56.314Z,2.36
2023-03-15T16:57:22.709Z,2.48
2023-03-15T16:59:49.102Z,2.48
2023-03-15T17:02:15.556Z,2.40
2023-03-15T17:04:41.967Z,2.17
2023-03-15T17:07:08.352Z,2.15
2023-03-15T17:09:34.756Z,2.30
2023-03-15T17:12:01.140Z,2.07
2023-03-15T17:14:27.478Z,2.27
2023-03-15T17:16:53.798Z,3.05
2023-03-15T17:19:20.117Z,3.91
2023-03-15T17:21:46.490Z,4.07
2023-03-15T17:24:12.883Z,6.10
2023-03-15T17:26:39.197Z,6.94
2023-03-15T17:29:05.523Z,6.62
2023-03-15T17:31:31.893Z,7.68
2023-03-15T17:33:58.304Z,9.92
2023-03-15T17:36:24.634Z,10.68
2023-03-15T17:38:50.990Z,15.77
2023-03-15T17:41:17.320Z,12.50
2023-03-15T17:43:43.680Z,11.51
2023-03-15T17:46:10.073Z,11.10
2023-03-15T17:48:36.412Z,9.90
2023-03-15T17:51:02.788Z,9.54
2023-03-15T17:53:29.238Z,10.33
2023-03-15T17:55:55.619Z,9.62
2023-03-15T17:58:22.096Z,10.06
2023-03-15T18:00:48.696Z,9.11
2023-03-15T18:03:15.106Z,11.22
2023-03-15T18:05:41.438Z,13.11
2023-03-15T18:08:07.769Z,14.58
2023-03-15T18:10:34.102Z,11.05
2023-03-15T18:13:00.484Z,9.81
2023-03-15T18:15:26.891Z,8.80
2023-03-15T18:17:53.215Z,7.84
2023-03-15T18:20:19.526Z,7.71
2023-03-15T18:22:45.941Z,7.26
2023-03-15T18:25:12.245Z,7.10
2023-03-15T18:27:38.691Z,6.43
2023-03-15T18:30:05.009Z,5.88
2023-03-15T18:32:31.402Z,5.64
2023-03-15T18:34:57.736Z,5.28
2023-03-15T18:37:24.034Z,4.79
2023-03-15T18:39:50.454Z,4.70
2023-03-15T18:42:16.741Z,4.94
2023-03-15T18:44:43.151Z,4.46
2023-03-15T18:47:09.555Z,4.08
2023-03-15T18:49:35.899Z,3.92
2023-03-15T18:52:02.210Z,3.58
2023-03-15T18:54:28.590Z,3.61
2023-03-15T18:56:54.951Z,3.64
2023-03-15T18:59:21.277Z,3.50
2023-03-15T19:01:47.671Z,3.31
2023-03-15T19:04:14.030Z,3.29
2023-03-15T19:06:40.416Z,3.34
2023-03-15T19:09:06.752Z,3.17
2023-03-15T19:11:33.092Z,3.24
2023-03-15T19:13:59.435Z,2.91
2023-03-15T19:16:25.858Z,2.65
2023-03-15T19:18:52.268Z,2.80
2023-03-15T19:21:18.635Z,2.87
2023-03-15T19:23:44.968Z,2.55
2023-03-15T19:26:11.380Z,2.65
2023-03-15T19:28:37.708Z,2.68
2023-03-15T19:31:04.193Z,2.93
2023-03-15T19:33:30.576Z,2.71
2023-03-15T19:35:56.967Z,2.72
2023-03-15T19:38:23.344Z,2.61
2023-03-15T19:40:49.769Z,2.54
2023-03-15T19:43:16.102Z,2.66
2023-03-15T19:45:42.453Z,2.81
2023-03-15T19:48:08.882Z,2.65
2023-03-15T19:50:35.195Z,2.75
2023-03-15T19:53:01.545Z,2.63
2023-03-15T19:55:30.398Z,2.69
2023-03-15T19:57:57.930Z,2.83
2023-03-15T20:00:24.431Z,2.94
2023-03-15T20:02:50.786Z,2.85
2023-03-15T20:05:17.235Z,2.84
2023-03-15T20:07:43.558Z,2.95
2023-03-15T20:10:09.930Z,3.01
2023-03-15T20:12:36.302Z,3.06
2023-03-15T20:15:02.643Z,3.17
2023-03-15T20:17:29.002Z,3.22
2023-03-15T20:19:55.325Z,3.44
2023-03-15T20:22:21.647Z,3.32
2023-03-15T20:24:48.023Z,3.56
2023-03-15T20:27:14.383Z,3.41
2023-03-15T20:29:40.753Z,3.48
2023-03-15T20:32:07.200Z,3.32
2023-03-15T20:34:33.507Z,3.70
2023-03-15T20:36:59.874Z,3.43
2023-03-15T20:39:26.191Z,3.74
2023-03-15T20:41:52.552Z,3.76
2023-03-15T20:44:18.916Z,3.64
2023-03-15T20:46:45.383Z,3.63
2023-03-15T20:49:12.077Z,3.61
2023-03-15T20:51:38.430Z,3.74
2023-03-15T20:54:04.777Z,3.69
2023-03-15T20:56:31.085Z,3.68
2023-03-15T20:58:57.389Z,3.70
2023-03-15T21:01:23.750Z,3.63
2023-03-15T21:03:50.187Z,3.76
2023-03-15T21:06:16.567Z,3.44
2023-03-15T21:08:42.925Z,3.79
2023-03-15T21:11:09.297Z,3.46
2023-03-15T21:13:35.624Z,3.84
2023-03-15T21:16:02.054Z,3.43
2023-03-15T21:18:28.482Z,3.81
2023-03-15T21:20:54.839Z,3.58
2023-03-15T21:23:21.135Z,3.62
2023-03-15T21:25:47.441Z,3.65
2023-03-15T21:28:13.738Z,3.31
2023-03-15T21:30:40.060Z,3.49
2023-03-15T21:33:06.470Z,3.36
2023-03-15T21:35:32.976Z,3.26
2023-03-15T21:37:59.285Z,3.48
2023-03-15T21:40:25.824Z,3.55
2023-03-15T21:42:52.254Z,3.37
2023-03-15T21:45:18.614Z,3.41
2023-03-15T21:47:44.988Z,3.45
2023-03-15T21:50:11.510Z,3.33
2023-03-15T21:52:37.879Z,3.22
2023-03-15T21:55:04.245Z,3.25
2023-03-15T21:57:30.657Z,3.35
2023-03-15T21:59:56.982Z,3.23
2023-03-15T22:02:23.351Z,3.16
2023-03-15T22:04:49.806Z,3.34
2023-03-15T22:07:16.192Z,3.42
2023-03-15T22:09:42.569Z,3.28
2023-03-15T22:12:08.940Z,3.09
2023-03-15T22:14:35.252Z,3.12
2023-03-15T22:17:01.655Z,3.19
2023-03-15T22:19:28.019Z,3.29
2023-03-15T22:21:54.360Z,3.36
2023-03-15T22:24:20.786Z,3.38
2023-03-15T22:26:47.139Z,3.32
2023-03-15T22:29:13.474Z,3.22
2023-03-15T22:31:39.841Z,3.14
2023-03-15T22:34:06.207Z,3.15
2023-03-15T22:36:32.583Z,3.40
2023-03-15T22:38:58.960Z,3.35
2023-03-15T22:41:25.276Z,3.06
2023-03-15T22:43:51.592Z,3.41
2023-03-15T22:46:17.942Z,3.40
2023-03-15T22:48:44.305Z,3.13
2023-03-15T22:51:10.616Z,3.14
2023-03-15T22:53:37.044Z,3.47
2023-03-15T22:56:03.398Z,3.17
2023-03-15T22:58:29.771Z,3.15
2023-03-15T23:00:56.151Z,3.08
2023-03-15T23:03:22.450Z,3.35
2023-03-15T23:05:48.768Z,3.21
2023-03-15T23:08:15.097Z,3.43
2023-03-15T23:10:41.421Z,3.13
2023-03-15T23:13:07.796Z,3.12
2023-03-15T23:15:34.153Z,3.30
2023-03-15T23:18:00.484Z,3.18
2023-03-15T23:20:27.135Z,3.19
2023-03-15T23:22:53.623Z,3.54
2023-03-15T23:25:19.972Z,3.31
2023-03-15T23:27:46.366Z,3.20
2023-03-15T23:30:12.680Z,3.46
2023-03-15T23:32:39.112Z,3.45
2023-03-15T23:35:05.522Z,3.01
2023-03-15T23:37:31.862Z,3.27
2023-03-15T23:39:58.198Z,3.52
2023-03-15T23:42:24.612Z,3.18
2023-03-15T23:44:50.952Z,3.13
2023-03-15T23:47:17.290Z,3.08
2023-03-15T23:49:43.666Z,3.11
2023-03-15T23:52:10.049Z,2.91
2023-03-15T23:54:36.413Z,3.04
2023-03-15T23:57:02.732Z,3.03
2023-03-15T23:59:29.126Z,2.94
